Time;durP1;ratioP1;P1;durP2;ratioP2;P2;SDS_P1;SDS_P2;PMS_P1;PMS_P2;Temp;Humidity;BMP_temperature;BMP_pressure;BME280_temperature;BME280_humidity;BME280_pressure;Samples;Min_cycle;Max_cycle;Signal;HPM_P1;HPM_P2
2023/06/28 00:02:00;;;;;;;6.40;4.57;;;;;;;;;;4972325;28;20208;-85
2023/06/28 00:04:28;;;;;;;8.10;4.13;;;;;;;;;;4972224;28;20255;-85
2023/06/28 00:06:57;;;;;;;6.50;3.50;;;;;;;;;;4971980;28;20205;-85
2023/06/28 00:09:27;;;;;;;5.70;4.00;;;;;;;;;;4971515;28;20196;-85
2023/06/28 00:11:55;;;;;;;6.77;3.60;;;;;;;;;;4972004;28;20215;-85
2023/06/28 00:14:24;;;;;;;7.17;4.43;;;;;;;;;;4972144;28;20221;-85
2023/06/28 00:16:52;;;;;;;4.50;3.70;;;;;;;;;;4971786;28;20201;-85
2023/06/28 00:19:26;;;;;;;6.57;4.93;;;;;;;;;;4971910;28;20263;-85
2023/06/28 00:21:55;;;;;;;7.23;3.60;;;;;;;;;;4972226;28;20201;-85
2023/06/28 00:24:23;;;;;;;7.17;3.13;;;;;;;;;;4972035;28;20234;-85
2023/06/28 00:26:53;;;;;;;14.47;3.77;;;;;;;;;;4971421;28;20201;-85
2023/06/28 00:29:22;;;;;;;5.87;2.60;;;;;;;;;;4972348;28;20216;-85
2023/06/28 00:31:50;;;;;;;4.53;2.87;;;;;;;;;;4971281;28;20208;-85
2023/06/28 00:34:18;;;;;;;5.13;3.27;;;;;;;;;;4971206;28;20234;-85
2023/06/28 00:36:49;;;;;;;17.17;2.80;;;;;;;;;;4971806;28;20292;-85
2023/06/28 00:39:17;;;;;;;5.07;3.43;;;;;;;;;;4971729;28;20205;-85
2023/06/28 00:41:46;;;;;;;9.70;3.40;;;;;;;;;;4971625;28;20201;-85
2023/06/28 00:44:15;;;;;;;7.17;3.67;;;;;;;;;;4971736;28;20210;-85
2023/06/28 00:46:44;;;;;;;9.50;4.13;;;;;;;;;;4971943;28;20209;-85
2023/06/28 00:49:12;;;;;;;9.57;3.50;;;;;;;;;;4971789;28;20197;-85
2023/06/28 00:51:41;;;;;;;7.87;3.80;;;;;;;;;;4970868;28;20227;-85
2023/06/28 00:54:10;;;;;;;5.33;2.87;;;;;;;;;;4972097;28;20221;-85
2023/06/28 00:56:39;;;;;;;7.87;3.77;;;;;;;;;;4971149;28;20286;-85
2023/06/28 00:59:07;;;;;;;8.37;4.47;;;;;;;;;;4971126;28;20190;-85
2023/06/28 01:01:37;;;;;;;4.70;4.30;;;;;;;;;;4971339;28;20205;-85
2023/06/28 01:04:06;;;;;;;6.63;3.27;;;;;;;;;;4971738;28;20209;-86
2023/06/28 01:06:36;;;;;;;8.13;4.60;;;;;;;;;;4972279;28;20213;-86
2023/06/28 01:09:07;;;;;;;4.93;3.27;;;;;;;;;;4971610;28;20212;-86
2023/06/28 01:11:36;;;;;;;3.70;2.70;;;;;;;;;;4972013;28;20208;-86
2023/06/28 01:14:05;;;;;;;6.97;3.37;;;;;;;;;;4972033;28;20231;-86
2023/06/28 01:16:34;;;;;;;4.87;3.77;;;;;;;;;;4971840;28;20205;-86
2023/06/28 01:19:04;;;;;;;12.00;3.23;;;;;;;;;;4972007;28;20300;-87
2023/06/28 01:21:35;;;;;;;2.70;1.23;;;;;;;;;;4971669;28;20208;-86
2023/06/28 01:24:05;;;;;;;3.13;2.83;;;;;;;;;;4970800;28;20208;-87
2023/06/28 01:26:36;;;;;;;8.07;4.03;;;;;;;;;;4971180;28;20205;-86
2023/06/28 01:29:05;;;;;;;5.27;3.37;;;;;;;;;;4971479;28;20225;-86
2023/06/28 01:31:34;;;;;;;2.23;2.03;;;;;;;;;;4971165;28;20200;-87
2023/06/28 01:34:02;;;;;;;4.00;3.47;;;;;;;;;;4971018;28;20234;-86
2023/06/28 01:36:31;;;;;;;6.23;3.87;;;;;;;;;;4971070;28;20255;-87
2023/06/28 01:39:00;;;;;;;7.83;4.20;;;;;;;;;;4970755;28;20209;-85
2023/06/28 01:41:30;;;;;;;3.10;2.80;;;;;;;;;;4970394;28;20197;-85
2023/06/28 01:44:01;;;;;;;3.13;2.83;;;;;;;;;;4970179;28;20199;-85
2023/06/28 01:46:31;;;;;;;5.90;4.40;;;;;;;;;;4970854;28;20213;-85
2023/06/28 01:49:00;;;;;;;7.27;4.03;;;;;;;;;;4970605;28;20200;-85
2023/06/28 01:51:28;;;;;;;7.70;3.57;;;;;;;;;;4970049;28;20201;-85
2023/06/28 01:53:57;;;;;;;4.40;4.00;;;;;;;;;;4970376;28;20224;-87
2023/06/28 01:56:25;;;;;;;4.50;2.40;;;;;;;;;;4970431;28;20244;-87
2023/06/28 01:58:55;;;;;;;10.93;4.20;;;;;;;;;;4971161;28;20228;-87
2023/06/28 02:01:24;;;;;;;8.17;5.13;;;;;;;;;;4970183;28;20198;-87
2023/06/28 02:03:53;;;;;;;9.17;4.70;;;;;;;;;;4970966;28;20200;-87
2023/06/28 02:06:21;;;;;;;6.60;4.20;;;;;;;;;;4970602;28;20205;-86
2023/06/28 02:08:50;;;;;;;7.63;3.63;;;;;;;;;;4970668;28;20217;-87
2023/06/28 02:11:18;;;;;;;3.77;2.83;;;;;;;;;;4970374;28;20283;-87
2023/06/28 02:13:47;;;;;;;4.67;3.67;;;;;;;;;;4970377;28;20208;-87
2023/06/28 02:16:18;;;;;;;6.37;3.60;;;;;;;;;;4970707;28;20234;-87
2023/06/28 02:18:46;;;;;;;3.77;2.77;;;;;;;;;;4970137;28;20208;-87
2023/06/28 02:21:16;;;;;;;6.47;4.10;;;;;;;;;;4970322;28;20208;-87
2023/06/28 02:23:44;;;;;;;5.97;3.87;;;;;;;;;;4970801;28;20208;-87
2023/06/28 02:26:13;;;;;;;6.70;3.97;;;;;;;;;;4970394;28;20228;-87
2023/06/28 02:28:41;;;;;;;6.37;4.03;;;;;;;;;;4970493;28;20221;-86
2023/06/28 02:31:10;;;;;;;2.77;2.57;;;;;;;;;;4970596;28;20292;-86
2023/06/28 02:33:39;;;;;;;7.80;3.93;;;;;;;;;;4971738;28;20211;-87
2023/06/28 02:36:08;;;;;;;3.80;3.20;;;;;;;;;;4973180;28;20320;-87
2023/06/28 02:38:37;;;;;;;6.00;2.80;;;;;;;;;;4973641;28;20200;-85
2023/06/28 02:41:05;;;;;;;12.23;3.63;;;;;;;;;;4973615;28;20209;-85
2023/06/28 02:43:34;;;;;;;1.70;1.60;;;;;;;;;;4973057;28;20212;-85
2023/06/28 02:46:02;;;;;;;2.73;2.53;;;;;;;;;;4973129;28;20250;-85
2023/06/28 02:48:31;;;;;;;6.17;3.13;;;;;;;;;;4973407;28;20201;-85
2023/06/28 02:51:00;;;;;;;3.93;2.70;;;;;;;;;;4972971;28;20211;-85
2023/06/28 02:53:29;;;;;;;4.13;2.87;;;;;;;;;;4972628;28;20208;-85
2023/06/28 02:55:58;;;;;;;3.43;2.90;;;;;;;;;;4973057;28;20239;-86
2023/06/28 02:58:26;;;;;;;8.13;4.13;;;;;;;;;;4973339;28;20217;-86
2023/06/28 03:00:57;;;;;;;10.73;4.27;;;;;;;;;;4973538;28;20208;-86
2023/06/28 03:03:26;;;;;;;3.97;2.77;;;;;;;;;;4973223;28;20215;-87
2023/06/28 03:05:54;;;;;;;9.43;4.30;;;;;;;;;;4973459;28;20205;-87
2023/06/28 03:08:24;;;;;;;5.60;3.37;;;;;;;;;;4973519;28;20300;-87
2023/06/28 03:10:53;;;;;;;3.03;2.23;;;;;;;;;;4972592;28;20195;-87
2023/06/28 03:13:21;;;;;;;11.10;4.20;;;;;;;;;;4973177;28;20209;-87
2023/06/28 03:15:50;;;;;;;8.63;4.17;;;;;;;;;;4973458;28;20221;-86
2023/06/28 03:18:18;;;;;;;3.83;2.77;;;;;;;;;;4972931;28;20211;-87
2023/06/28 03:20:50;;;;;;;5.83;4.73;;;;;;;;;;4973035;28;20211;-87
2023/06/28 03:23:19;;;;;;;5.47;3.53;;;;;;;;;;4973378;28;20209;-87
2023/06/28 03:25:52;;;;;;;4.10;2.90;;;;;;;;;;4973304;28;20204;-87
2023/06/28 03:28:24;;;;;;;10.93;5.47;;;;;;;;;;4973077;28;20217;-87
2023/06/28 03:30:52;;;;;;;10.97;5.20;;;;;;;;;;4973297;28;20212;-86
2023/06/28 03:33:21;;;;;;;8.30;5.03;;;;;;;;;;4972949;28;20208;-87
2023/06/28 03:35:49;;;;;;;5.93;4.23;;;;;;;;;;4972624;28;20224;-86
2023/06/28 03:38:18;;;;;;;9.80;6.93;;;;;;;;;;4973288;28;20200;-86
2023/06/28 03:40:46;;;;;;;7.27;5.87;;;;;;;;;;4973003;28;20277;-87
2023/06/28 03:43:16;;;;;;;7.10;5.17;;;;;;;;;;4973189;28;20254;-86
2023/06/28 03:45:44;;;;;;;9.03;4.00;;;;;;;;;;4971783;28;20254;-87
2023/06/28 03:48:13;;;;;;;10.03;5.90;;;;;;;;;;4973019;28;20254;-86
2023/06/28 03:50:42;;;;;;;10.20;5.77;;;;;;;;;;4972383;28;20212;-87
2023/06/28 03:53:11;;;;;;;7.07;4.33;;;;;;;;;;4972174;28;20204;-87
2023/06/28 03:55:39;;;;;;;12.33;6.07;;;;;;;;;;4972462;28;20262;-87
2023/06/28 03:58:08;;;;;;;10.93;7.53;;;;;;;;;;4972914;28;20208;-86
2023/06/28 04:00:38;;;;;;;20.13;5.90;;;;;;;;;;4972541;28;20208;-87
2023/06/28 04:03:10;;;;;;;9.40;6.60;;;;;;;;;;4972200;28;20219;-86
2023/06/28 04:05:39;;;;;;;11.30;6.07;;;;;;;;;;4972376;28;20208;-86
2023/06/28 04:08:08;;;;;;;6.73;4.03;;;;;;;;;;4971942;28;20200;-87
2023/06/28 04:10:38;;;;;;;10.20;5.73;;;;;;;;;;4971630;28;20273;-87
2023/06/28 04:13:07;;;;;;;10.60;6.27;;;;;;;;;;4972766;28;20265;-87
2023/06/28 04:15:35;;;;;;;10.83;8.13;;;;;;;;;;4972152;28;20231;-87
2023/06/28 04:18:05;;;;;;;10.13;4.67;;;;;;;;;;4972411;28;20208;-87
2023/06/28 04:20:34;;;;;;;10.37;5.97;;;;;;;;;;4971637;28;20215;-85
2023/06/28 04:23:02;;;;;;;12.40;8.30;;;;;;;;;;4972150;28;20200;-85
2023/06/28 04:25:31;;;;;;;14.93;9.90;;;;;;;;;;4971757;28;20196;-85
2023/06/28 04:28:01;;;;;;;14.03;10.47;;;;;;;;;;4971594;28;20224;-85
2023/06/28 04:30:31;;;;;;;14.73;9.17;;;;;;;;;;4971537;28;20216;-85
2023/06/28 04:33:04;;;;;;;16.50;8.77;;;;;;;;;;4971903;28;20205;-87
2023/06/28 04:35:37;;;;;;;8.70;5.33;;;;;;;;;;4971992;28;20224;-87
2023/06/28 04:38:07;;;;;;;15.77;9.37;;;;;;;;;;4971280;28;20208;-87
2023/06/28 04:40:36;;;;;;;12.37;6.77;;;;;;;;;;4972262;28;20303;-87
2023/06/28 04:43:09;;;;;;;14.37;9.60;;;;;;;;;;4971943;28;20204;-87
2023/06/28 04:45:38;;;;;;;12.17;6.20;;;;;;;;;;4971918;28;20215;-87
2023/06/28 04:48:08;;;;;;;9.30;7.00;;;;;;;;;;4971666;28;20228;-87
2023/06/28 04:50:38;;;;;;;15.67;9.30;;;;;;;;;;4971556;28;20270;-87
2023/06/28 04:53:08;;;;;;;13.27;8.80;;;;;;;;;;4971798;28;20261;-87
2023/06/28 04:55:36;;;;;;;16.40;9.40;;;;;;;;;;4970801;28;20239;-85
2023/06/28 04:58:06;;;;;;;7.93;6.57;;;;;;;;;;4970759;28;20226;-85
2023/06/28 05:00:38;;;;;;;9.27;6.50;;;;;;;;;;4971659;28;20292;-85
2023/06/28 05:03:10;;;;;;;13.57;9.67;;;;;;;;;;4970785;28;20215;-85
2023/06/28 05:05:40;;;;;;;9.87;6.50;;;;;;;;;;4971564;28;20204;-84
2023/06/28 05:08:09;;;;;;;18.00;10.33;;;;;;;;;;4971731;28;20221;-85
2023/06/28 05:10:37;;;;;;;16.90;10.97;;;;;;;;;;4970933;28;20298;-85
2023/06/28 05:13:06;;;;;;;20.83;14.50;;;;;;;;;;4971278;28;20212;-85
2023/06/28 05:15:35;;;;;;;8.43;5.47;;;;;;;;;;4970962;28;20211;-85
2023/06/28 05:18:04;;;;;;;15.00;8.33;;;;;;;;;;4971255;28;20200;-85
2023/06/28 05:20:32;;;;;;;24.43;13.40;;;;;;;;;;4970636;28;20212;-85
2023/06/28 05:23:12;;;;;;;18.60;9.43;;;;;;;;;;4971316;28;20208;-85
2023/06/28 05:25:41;;;;;;;24.57;12.23;;;;;;;;;;4971137;28;20247;-84
2023/06/28 05:28:11;;;;;;;1.23;1.13;;;;;;;;;;4970615;28;20225;-85
2023/06/28 05:30:39;;;;;;;12.40;8.10;;;;;;;;;;4970516;28;20201;-85
2023/06/28 05:33:08;;;;;;;23.33;14.50;;;;;;;;;;4970724;28;20205;-85
2023/06/28 05:35:38;;;;;;;14.87;9.07;;;;;;;;;;4971773;28;20201;-86
2023/06/28 05:38:07;;;;;;;15.70;9.80;;;;;;;;;;4970590;28;20215;-85
2023/06/28 05:40:37;;;;;;;19.07;10.67;;;;;;;;;;4970605;28;20219;-85
2023/06/28 05:43:07;;;;;;;18.63;10.60;;;;;;;;;;4971096;28;20197;-86
2023/06/28 05:45:36;;;;;;;25.47;16.17;;;;;;;;;;4970468;28;20209;-85
2023/06/28 05:48:04;;;;;;;23.40;6.87;;;;;;;;;;4971246;28;20216;-86
2023/06/28 05:50:33;;;;;;;12.63;9.07;;;;;;;;;;4971440;28;20218;-87
2023/06/28 05:53:02;;;;;;;21.70;16.57;;;;;;;;;;4971260;28;20198;-86
2023/06/28 05:55:30;;;;;;;20.60;12.23;;;;;;;;;;4970264;28;20233;-86
2023/06/28 05:58:00;;;;;;;13.60;10.40;;;;;;;;;;4970994;28;20237;-86
2023/06/28 06:00:29;;;;;;;21.33;13.20;;;;;;;;;;4971280;28;20220;-85
2023/06/28 06:03:07;;;;;;;17.83;10.17;;;;;;;;;;4972250;28;20255;-86
2023/06/28 06:05:36;;;;;;;19.40;14.20;;;;;;;;;;4971795;28;20223;-86
2023/06/28 06:08:10;;;;;;;20.03;13.53;;;;;;;;;;4971446;28;20258;-86
2023/06/28 06:10:39;;;;;;;21.27;10.27;;;;;;;;;;4971935;28;20205;-85
2023/06/28 06:13:13;;;;;;;11.60;8.27;;;;;;;;;;4971873;28;20275;-86
2023/06/28 06:15:41;;;;;;;17.70;11.23;;;;;;;;;;4972060;28;20190;-86
2023/06/28 06:18:10;;;;;;;21.37;15.20;;;;;;;;;;4971888;28;20229;-86
2023/06/28 06:20:39;;;;;;;15.67;12.07;;;;;;;;;;4970261;28;20208;-86
2023/06/28 06:23:11;;;;;;;23.47;14.40;;;;;;;;;;4971849;28;20200;-86
2023/06/28 06:25:39;;;;;;;21.30;14.57;;;;;;;;;;4972002;28;20220;-86
2023/06/28 06:28:08;;;;;;;16.63;11.97;;;;;;;;;;4971403;28;20311;-86
2023/06/28 06:30:40;;;;;;;18.07;11.10;;;;;;;;;;4971944;28;20206;-86
2023/06/28 06:33:12;;;;;;;8.53;4.77;;;;;;;;;;4972481;28;20321;-86
2023/06/28 06:35:40;;;;;;;19.70;10.87;;;;;;;;;;4972252;28;20330;-84
2023/06/28 06:38:09;;;;;;;10.23;7.23;;;;;;;;;;4972528;28;20234;-86
2023/06/28 06:40:38;;;;;;;16.83;10.73;;;;;;;;;;4971330;28;20205;-84
2023/06/28 06:43:07;;;;;;;15.97;9.47;;;;;;;;;;4970752;28;20236;-84
2023/06/28 06:45:35;;;;;;;25.20;12.03;;;;;;;;;;4970567;28;20209;-85
2023/06/28 06:48:05;;;;;;;10.77;8.83;;;;;;;;;;4970560;28;20194;-85
2023/06/28 06:50:34;;;;;;;11.37;7.83;;;;;;;;;;4970251;28;20293;-85
2023/06/28 06:53:03;;;;;;;18.57;11.13;;;;;;;;;;4969828;28;20194;-85
2023/06/28 06:55:31;;;;;;;16.90;10.93;;;;;;;;;;4969518;28;20240;-85
2023/06/28 06:58:00;;;;;;;15.13;5.73;;;;;;;;;;4970033;28;20236;-85
2023/06/28 07:00:28;;;;;;;8.63;6.30;;;;;;;;;;4970264;28;20207;-85
2023/06/28 07:02:57;;;;;;;11.30;7.10;;;;;;;;;;4970077;28;20201;-85
2023/06/28 07:05:27;;;;;;;10.87;6.63;;;;;;;;;;4969444;28;20205;-85
2023/06/28 07:07:56;;;;;;;18.40;9.60;;;;;;;;;;4969609;28;20194;-85
2023/06/28 07:10:25;;;;;;;19.03;10.20;;;;;;;;;;4969854;28;20205;-85
2023/06/28 07:12:54;;;;;;;11.03;6.80;;;;;;;;;;4969840;28;20199;-85
2023/06/28 07:15:22;;;;;;;18.77;10.57;;;;;;;;;;4970103;28;20216;-85
2023/06/28 07:17:52;;;;;;;19.77;12.93;;;;;;;;;;4969761;28;20221;-85
2023/06/28 07:20:24;;;;;;;13.80;9.97;;;;;;;;;;4970112;28;20206;-86
2023/06/28 07:22:54;;;;;;;6.57;4.17;;;;;;;;;;4972285;28;20201;-85
2023/06/28 07:25:23;;;;;;;22.73;12.63;;;;;;;;;;4973123;28;20224;-85
2023/06/28 07:27:51;;;;;;;14.33;6.23;;;;;;;;;;4972876;28;20213;-84
2023/06/28 07:30:23;;;;;;;15.27;9.67;;;;;;;;;;4972633;28;20209;-86
2023/06/28 07:32:52;;;;;;;17.57;8.40;;;;;;;;;;4972785;28;20258;-83
2023/06/28 07:35:28;;;;;;;18.07;8.30;;;;;;;;;;4972820;28;20286;-83
2023/06/28 07:37:58;;;;;;;0.57;0.57;;;;;;;;;;4972251;28;20319;-85
2023/06/28 07:40:26;;;;;;;17.20;11.87;;;;;;;;;;4972184;28;20210;-84
2023/06/28 07:42:55;;;;;;;19.80;10.73;;;;;;;;;;4973118;28;20205;-85
2023/06/28 07:45:27;;;;;;;12.93;9.30;;;;;;;;;;4973219;28;20266;-85
2023/06/28 07:47:57;;;;;;;16.57;8.00;;;;;;;;;;4973833;28;20205;-85
2023/06/28 07:50:26;;;;;;;16.57;10.47;;;;;;;;;;4973536;28;20272;-85
2023/06/28 07:52:54;;;;;;;16.97;10.30;;;;;;;;;;4974288;28;20220;-85
2023/06/28 07:55:24;;;;;;;14.13;9.23;;;;;;;;;;4973823;28;20245;-85
2023/06/28 07:57:53;;;;;;;15.63;9.80;;;;;;;;;;4974174;28;20248;-85
2023/06/28 08:00:22;;;;;;;15.13;9.00;;;;;;;;;;4974972;28;20216;-85
2023/06/28 08:02:52;;;;;;;10.47;5.53;;;;;;;;;;4974222;28;20287;-85
2023/06/28 08:05:20;;;;;;;10.43;7.73;;;;;;;;;;4973537;28;20208;-85
2023/06/28 08:07:49;;;;;;;20.00;11.63;;;;;;;;;;4973927;28;20243;-85
2023/06/28 08:10:18;;;;;;;16.77;9.63;;;;;;;;;;4974388;28;20204;-85
2023/06/28 08:12:48;;;;;;;20.83;11.23;;;;;;;;;;4973906;28;20209;-86
2023/06/28 08:15:18;;;;;;;20.60;13.50;;;;;;;;;;4973935;28;20209;-85
2023/06/28 08:17:46;;;;;;;22.13;12.20;;;;;;;;;;4974451;28;20228;-85
2023/06/28 08:20:15;;;;;;;16.13;9.73;;;;;;;;;;4975040;28;20201;-86
2023/06/28 08:22:44;;;;;;;16.50;8.03;;;;;;;;;;4974046;28;20205;-85
2023/06/28 08:25:13;;;;;;;21.63;12.67;;;;;;;;;;4975504;28;20303;-86
2023/06/28 08:27:41;;;;;;;19.13;14.03;;;;;;;;;;4974591;28;20222;-85
2023/06/28 08:30:12;;;;;;;6.73;4.40;;;;;;;;;;4974929;28;20255;-85
2023/06/28 08:32:42;;;;;;;15.53;9.07;;;;;;;;;;4972957;28;20262;-84
2023/06/28 08:35:12;;;;;;;19.70;12.13;;;;;;;;;;4975370;28;20290;-85
2023/06/28 08:37:40;;;;;;;19.33;11.63;;;;;;;;;;4972890;28;20318;-84
2023/06/28 08:40:09;;;;;;;13.13;7.50;;;;;;;;;;4971610;28;20201;-84
2023/06/28 08:42:41;;;;;;;19.37;11.67;;;;;;;;;;4971605;28;20197;-84
2023/06/28 08:45:10;;;;;;;20.27;13.90;;;;;;;;;;4972091;28;20213;-84
2023/06/28 08:47:41;;;;;;;15.13;10.40;;;;;;;;;;4974830;28;20206;-85
2023/06/28 08:50:11;;;;;;;12.67;9.37;;;;;;;;;;4975828;28;20209;-85
2023/06/28 08:52:40;;;;;;;21.17;13.60;;;;;;;;;;4975230;28;20230;-85
2023/06/28 08:55:09;;;;;;;17.13;12.17;;;;;;;;;;4973949;28;20237;-84
2023/06/28 08:57:40;;;;;;;17.27;10.97;;;;;;;;;;4971461;28;20320;-84
2023/06/28 09:00:12;;;;;;;15.33;9.10;;;;;;;;;;4971642;28;20210;-84
2023/06/28 09:02:43;;;;;;;15.40;8.73;;;;;;;;;;4971761;28;20202;-85
2023/06/28 09:05:12;;;;;;;15.73;9.00;;;;;;;;;;4971409;28;20216;-85
2023/06/28 09:07:41;;;;;;;22.13;12.83;;;;;;;;;;4971418;28;20218;-84
2023/06/28 09:10:11;;;;;;;20.90;12.50;;;;;;;;;;4971746;28;20209;-84
2023/06/28 09:12:40;;;;;;;10.97;5.53;;;;;;;;;;4971064;28;20202;-84
2023/06/28 09:15:09;;;;;;;10.67;5.60;;;;;;;;;;4971208;28;20204;-84
2023/06/28 09:17:38;;;;;;;6.60;4.80;;;;;;;;;;4971510;28;20277;-84
2023/06/28 09:20:25;;;;;;;20.10;10.83;;;;;;;;;;4972609;28;20265;-85
2023/06/28 09:22:59;;;;;;;11.17;5.73;;;;;;;;;;4972477;28;20197;-85
2023/06/28 09:25:29;;;;;;;11.40;7.07;;;;;;;;;;4972562;28;20217;-85
2023/06/28 09:27:58;;;;;;;9.67;5.83;;;;;;;;;;4972886;28;20228;-85
2023/06/28 09:30:27;;;;;;;8.83;6.40;;;;;;;;;;4972258;28;20211;-85
2023/06/28 09:32:55;;;;;;;11.83;7.77;;;;;;;;;;4972296;28;20203;-85
2023/06/28 09:35:24;;;;;;;9.60;6.13;;;;;;;;;;4972707;28;20242;-85
2023/06/28 09:37:57;;;;;;;11.33;7.37;;;;;;;;;;4972142;28;20204;-85
2023/06/28 09:40:34;;;;;;;7.37;2.67;;;;;;;;;;4972263;28;20204;-86
2023/06/28 09:43:03;;;;;;;11.80;7.33;;;;;;;;;;4971928;28;20300;-85
2023/06/28 09:45:32;;;;;;;13.97;9.63;;;;;;;;;;4972303;28;20222;-85
2023/06/28 09:48:02;;;;;;;10.63;7.10;;;;;;;;;;4971844;28;20192;-85
2023/06/28 09:50:37;;;;;;;4.20;3.67;;;;;;;;;;4971608;28;20301;-85
2023/06/28 09:53:10;;;;;;;8.73;6.10;;;;;;;;;;4972304;28;20203;-86
2023/06/28 09:55:41;;;;;;;10.50;3.63;;;;;;;;;;4972174;28;20246;-85
2023/06/28 09:58:11;;;;;;;5.87;4.50;;;;;;;;;;4971710;28;20337;-86
2023/06/28 10:00:40;;;;;;;17.37;9.97;;;;;;;;;;4971946;28;20216;-86
2023/06/28 10:03:09;;;;;;;17.17;11.30;;;;;;;;;;4972364;28;20203;-85
2023/06/28 10:05:39;;;;;;;16.33;7.87;;;;;;;;;;4972125;28;20210;-85
2023/06/28 10:08:12;;;;;;;17.27;5.97;;;;;;;;;;4972097;28;20204;-85
2023/06/28 10:10:42;;;;;;;9.43;5.47;;;;;;;;;;4971711;28;20200;-85
2023/06/28 10:13:13;;;;;;;7.67;4.23;;;;;;;;;;4972738;28;20248;-85
2023/06/28 10:15:45;;;;;;;3.60;2.43;;;;;;;;;;4972545;28;20207;-85
2023/06/28 10:18:14;;;;;;;6.00;3.20;;;;;;;;;;4972970;28;20217;-85
2023/06/28 10:20:43;;;;;;;3.17;2.17;;;;;;;;;;4972959;28;20202;-85
2023/06/28 10:23:12;;;;;;;7.73;5.83;;;;;;;;;;4971027;28;20221;-84
2023/06/28 10:25:42;;;;;;;8.83;4.23;;;;;;;;;;4969871;28;20260;-84
2023/06/28 10:28:14;;;;;;;10.93;5.37;;;;;;;;;;4970310;28;20228;-84
2023/06/28 10:30:43;;;;;;;10.30;5.60;;;;;;;;;;4970388;28;20206;-85
2023/06/28 10:33:11;;;;;;;5.20;2.67;;;;;;;;;;4970433;28;20258;-85
2023/06/28 10:35:40;;;;;;;10.80;4.07;;;;;;;;;;4969695;28;20204;-85
2023/06/28 10:38:09;;;;;;;5.83;3.70;;;;;;;;;;4970140;28;20281;-85
2023/06/28 10:40:39;;;;;;;5.10;2.73;;;;;;;;;;4969663;28;20211;-85
2023/06/28 10:43:24;;;;;;;5.50;3.70;;;;;;;;;;4969992;28;20303;-84
2023/06/28 10:45:53;;;;;;;2.70;2.03;;;;;;;;;;4970854;28;20204;-85
2023/06/28 10:48:23;;;;;;;3.90;1.70;;;;;;;;;;4970375;28;20206;-84
2023/06/28 10:51:00;;;;;;;3.10;2.60;;;;;;;;;;4969422;28;20211;-85
2023/06/28 10:53:29;;;;;;;7.77;3.13;;;;;;;;;;4970128;28;20244;-84
2023/06/28 10:56:08;;;;;;;2.83;2.17;;;;;;;;;;4972373;28;20239;-84
2023/06/28 10:58:42;;;;;;;7.50;3.73;;;;;;;;;;4972334;28;20197;-85
2023/06/28 11:01:11;;;;;;;7.43;5.50;;;;;;;;;;4972917;28;20200;-85
2023/06/28 11:03:41;;;;;;;14.20;5.97;;;;;;;;;;4973154;28;20206;-85
2023/06/28 11:06:10;;;;;;;13.43;3.53;;;;;;;;;;4972809;28;20295;-85
2023/06/28 11:08:40;;;;;;;4.50;3.27;;;;;;;;;;4975610;28;20194;-85
2023/06/28 11:11:10;;;;;;;4.23;3.03;;;;;;;;;;4977058;28;20207;-85
2023/06/28 11:13:48;;;;;;;13.77;7.30;;;;;;;;;;4972783;28;20235;-85
2023/06/28 11:16:21;;;;;;;8.80;4.87;;;;;;;;;;4976383;28;20203;-86
2023/06/28 11:18:50;;;;;;;9.17;5.27;;;;;;;;;;4978312;28;20298;-86
2023/06/28 11:21:20;;;;;;;4.73;1.87;;;;;;;;;;4977970;28;20215;-86
2023/06/28 11:23:55;;;;;;;4.10;3.70;;;;;;;;;;4976964;28;20302;-85
2023/06/28 11:26:34;;;;;;;12.87;3.73;;;;;;;;;;4975074;28;20252;-84
2023/06/28 11:29:16;;;;;;;9.90;6.33;;;;;;;;;;4972937;28;20216;-85
2023/06/28 11:31:48;;;;;;;2.53;2.13;;;;;;;;;;4972693;28;20204;-85
2023/06/28 11:34:17;;;;;;;7.30;3.33;;;;;;;;;;4972221;28;20265;-85
2023/06/28 11:36:47;;;;;;;3.70;2.70;;;;;;;;;;4972423;28;20216;-85
2023/06/28 11:39:17;;;;;;;12.67;7.20;;;;;;;;;;4973946;28;20283;-86
2023/06/28 11:41:46;;;;;;;9.93;4.70;;;;;;;;;;4974401;28;20208;-86
2023/06/28 11:44:17;;;;;;;6.03;4.67;;;;;;;;;;4975024;28;20211;-85
2023/06/28 11:46:46;;;;;;;13.67;9.57;;;;;;;;;;4975221;28;20277;-86
2023/06/28 11:49:18;;;;;;;3.47;3.13;;;;;;;;;;4973419;28;20211;-86
2023/06/28 11:51:52;;;;;;;8.37;3.17;;;;;;;;;;4974367;28;20212;-85
2023/06/28 11:54:20;;;;;;;2.40;2.10;;;;;;;;;;4974626;28;20204;-86
2023/06/28 11:56:50;;;;;;;4.53;2.93;;;;;;;;;;4974650;28;20243;-85
2023/06/28 11:59:20;;;;;;;5.03;3.50;;;;;;;;;;4974837;28;20239;-86
2023/06/28 12:01:49;;;;;;;6.77;3.77;;;;;;;;;;4974043;28;20299;-86
2023/06/28 12:04:19;;;;;;;4.83;3.33;;;;;;;;;;4974825;28;20215;-86
2023/06/28 12:06:51;;;;;;;7.23;4.13;;;;;;;;;;4973627;28;20204;-85
2023/06/28 12:09:20;;;;;;;15.57;6.63;;;;;;;;;;4973829;28;20243;-86
2023/06/28 12:11:57;;;;;;;7.53;4.57;;;;;;;;;;4974250;28;20204;-86
2023/06/28 12:14:28;;;;;;;9.23;7.33;;;;;;;;;;4974452;28;20217;-86
2023/06/28 12:16:57;;;;;;;10.50;3.57;;;;;;;;;;4973297;28;20284;-86
2023/06/28 12:19:33;;;;;;;5.47;3.57;;;;;;;;;;4974228;28;20228;-85
2023/06/28 12:22:02;;;;;;;5.43;2.40;;;;;;;;;;4974191;28;20213;-85
2023/06/28 12:24:32;;;;;;;2.53;1.90;;;;;;;;;;4974418;28;20207;-86
2023/06/28 12:27:01;;;;;;;5.00;3.33;;;;;;;;;;4974393;28;20293;-86
2023/06/28 12:29:32;;;;;;;3.37;2.53;;;;;;;;;;4975476;28;20222;-85
2023/06/28 12:32:04;;;;;;;5.87;4.10;;;;;;;;;;4974381;28;20303;-86
2023/06/28 12:34:34;;;;;;;5.37;3.37;;;;;;;;;;4975908;28;20244;-85
2023/06/28 12:37:05;;;;;;;2.50;2.27;;;;;;;;;;4975217;28;20235;-86
2023/06/28 12:39:34;;;;;;;5.90;4.13;;;;;;;;;;4975124;28;20205;-86
2023/06/28 12:42:04;;;;;;;12.97;6.07;;;;;;;;;;4974460;28;20193;-86
2023/06/28 12:44:49;;;;;;;7.77;4.47;;;;;;;;;;4975540;28;20239;-86
2023/06/28 12:47:17;;;;;;;7.77;4.53;;;;;;;;;;4975306;28;20295;-86
2023/06/28 12:49:46;;;;;;;16.60;7.40;;;;;;;;;;4975433;28;20209;-86
2023/06/28 12:52:15;;;;;;;9.20;4.63;;;;;;;;;;4975860;28;20268;-86
2023/06/28 12:54:43;;;;;;;4.07;2.73;;;;;;;;;;4976199;28;20296;-86
2023/06/28 12:57:12;;;;;;;4.80;3.23;;;;;;;;;;4973506;28;20257;-86
2023/06/28 12:59:42;;;;;;;6.10;3.70;;;;;;;;;;4973445;28;20205;-86
2023/06/28 13:02:11;;;;;;;4.47;3.17;;;;;;;;;;4972715;28;20208;-85
2023/06/28 13:04:40;;;;;;;9.93;5.70;;;;;;;;;;4971780;28;20208;-85
2023/06/28 13:07:09;;;;;;;16.30;11.47;;;;;;;;;;4971064;28;20281;-86
2023/06/28 13:09:38;;;;;;;6.70;3.67;;;;;;;;;;4971072;28;20307;-86
2023/06/28 13:12:11;;;;;;;10.03;5.80;;;;;;;;;;4976339;28;20215;-86
2023/06/28 13:14:42;;;;;;;9.37;6.37;;;;;;;;;;4977319;28;20287;-87
2023/06/28 13:17:11;;;;;;;8.47;6.00;;;;;;;;;;4974583;28;20200;-86
2023/06/28 13:19:40;;;;;;;4.93;4.47;;;;;;;;;;4977690;28;20201;-86
2023/06/28 13:22:08;;;;;;;7.13;3.67;;;;;;;;;;4978402;28;20240;-86
2023/06/28 13:24:37;;;;;;;8.00;4.83;;;;;;;;;;4978249;28;20305;-81
2023/06/28 13:27:08;;;;;;;7.37;4.67;;;;;;;;;;4978562;28;20239;-86
2023/06/28 13:29:38;;;;;;;18.37;9.87;;;;;;;;;;4978395;28;20212;-86
2023/06/28 13:32:12;;;;;;;17.70;9.83;;;;;;;;;;4977571;28;20231;-87
2023/06/28 13:34:40;;;;;;;8.77;5.83;;;;;;;;;;4977624;28;20212;-86
2023/06/28 13:37:13;;;;;;;12.33;5.30;;;;;;;;;;4978340;28;20205;-86
2023/06/28 13:39:58;;;;;;;15.90;7.47;;;;;;;;;;4975026;28;20208;-85
2023/06/28 13:42:27;;;;;;;10.37;5.47;;;;;;;;;;4970456;28;20260;-85
2023/06/28 13:44:58;;;;;;;3.70;2.70;;;;;;;;;;4970725;28;20265;-84
2023/06/28 13:47:28;;;;;;;15.47;9.57;;;;;;;;;;4971000;28;20300;-85
2023/06/28 13:49:58;;;;;;;13.63;4.83;;;;;;;;;;4970625;28;20254;-85
2023/06/28 13:52:27;;;;;;;1.80;1.63;;;;;;;;;;4970389;28;20217;-85
2023/06/28 13:54:55;;;;;;;12.87;7.27;;;;;;;;;;4970727;28;20205;-84
2023/06/28 13:57:24;;;;;;;6.63;4.10;;;;;;;;;;4970720;28;20205;-85
2023/06/28 13:59:55;;;;;;;17.60;12.07;;;;;;;;;;4970113;28;20226;-85
2023/06/28 14:02:26;;;;;;;9.20;4.97;;;;;;;;;;4970437;28;20230;-85
2023/06/28 14:04:58;;;;;;;7.17;5.33;;;;;;;;;;4970372;28;20220;-86
2023/06/28 14:07:28;;;;;;;6.43;4.53;;;;;;;;;;4973214;28;20261;-86
2023/06/28 14:10:02;;;;;;;13.40;6.37;;;;;;;;;;4976754;28;20211;-86
2023/06/28 14:12:31;;;;;;;8.77;5.77;;;;;;;;;;4976906;28;20276;-86
2023/06/28 14:15:02;;;;;;;21.73;9.10;;;;;;;;;;4975502;28;20204;-86
2023/06/28 14:17:31;;;;;;;10.97;3.73;;;;;;;;;;4976081;28;20210;-86
2023/06/28 14:20:02;;;;;;;13.27;6.10;;;;;;;;;;4976762;28;20195;-85
2023/06/28 14:22:36;;;;;;;6.80;3.50;;;;;;;;;;4976258;28;20390;-86
2023/06/28 14:25:07;;;;;;;6.77;4.53;;;;;;;;;;4975759;28;20193;-86
2023/06/28 14:27:37;;;;;;;8.37;3.83;;;;;;;;;;4975956;28;20230;-85
2023/06/28 14:30:07;;;;;;;5.97;4.13;;;;;;;;;;4975745;28;20217;-85
2023/06/28 14:32:36;;;;;;;4.30;2.93;;;;;;;;;;4973636;28;20299;-84
2023/06/28 14:35:07;;;;;;;11.10;7.07;;;;;;;;;;4972923;28;20197;-84
2023/06/28 14:37:36;;;;;;;6.37;5.10;;;;;;;;;;4973408;28;20205;-85
2023/06/28 14:40:07;;;;;;;6.30;4.57;;;;;;;;;;4973295;28;20236;-84
2023/06/28 14:42:35;;;;;;;8.87;5.80;;;;;;;;;;4972595;28;20224;-85
2023/06/28 14:45:04;;;;;;;14.50;8.60;;;;;;;;;;4972846;28;20212;-85
2023/06/28 14:47:33;;;;;;;11.77;4.83;;;;;;;;;;4973524;28;20328;-85
2023/06/28 14:50:01;;;;;;;7.23;5.80;;;;;;;;;;4973374;28;20210;-85
2023/06/28 14:52:31;;;;;;;6.87;4.83;;;;;;;;;;4973083;28;20209;-85